createdAt,value
2018-07-24T12:58:25.513Z,9.00
2018-07-24T13:08:39.392Z,10.00
2018-07-24T13:12:53.731Z,10.75
2018-07-24T13:14:36.336Z,10.25
2018-07-24T13:20:48.488Z,10.25
2018-07-24T13:22:32.464Z,10.00
2018-07-24T13:29:27.764Z,10.00
2018-07-24T13:34:10.279Z,10.25
2018-07-24T13:35:59.002Z,12.00
2018-07-24T13:37:39.185Z,10.75
2018-07-24T13:39:22.444Z,12.00
2018-07-24T13:41:21.298Z,9.25
2018-07-24T13:43:04.152Z,8.50
2018-07-24T13:44:52.953Z,9.75
2018-07-24T13:46:38.619Z,11.00
2018-07-24T13:48:27.360Z,11.00
2018-07-24T13:50:10.129Z,10.25
2018-07-24T13:53:24.850Z,9.75
2018-07-24T14:02:58.463Z,10.50
2018-07-24T14:04:51.025Z,11.25
2018-07-24T14:11:19.342Z,12.00
2018-07-24T14:13:17.913Z,12.50
2018-07-24T14:20:13.915Z,10.75
2018-07-24T14:27:47.390Z,10.75
2018-07-24T14:29:31.347Z,11.75
2018-07-24T14:31:47.352Z,25.75
2018-07-24T14:43:07.942Z,9.75
2018-07-24T14:45:09.686Z,19.00
2018-07-24T14:53:51.940Z,11.50
2018-07-24T14:58:10.861Z,10.00
2018-07-24T15:00:27.438Z,11.75
2018-07-24T15:02:15.645Z,11.75
2018-07-24T15:04:13.371Z,13.50
2018-07-24T15:06:13.624Z,12.00
2018-07-24T15:08:41.428Z,11.75
2018-07-24T15:10:32.618Z,10.25
2018-07-24T15:12:41.621Z,11.75
2018-07-24T15:14:21.559Z,11.25
2018-07-24T15:16:04.801Z,11.75
2018-07-24T15:18:07.249Z,11.25
2018-07-24T15:20:01.505Z,11.00
2018-07-24T15:31:08.637Z,12.25
2018-07-24T15:35:44.990Z,10.50
2018-07-24T15:50:59.483Z,13.25
2018-07-24T15:53:09.551Z,12.75
2018-07-24T15:59:56.631Z,13.00
2018-07-24T16:26:12.082Z,11.75
2018-07-24T16:27:48.458Z,11.50
2018-07-24T16:29:24.762Z,16.25
2018-07-24T16:31:02.837Z,12.25
2018-07-24T16:32:40.980Z,11.75
2018-07-24T16:34:18.256Z,11.25
2018-07-24T16:35:54.741Z,10.75
2018-07-24T16:37:31.457Z,12.50
2018-07-24T16:39:11.774Z,13.00
2018-07-24T16:40:48.871Z,12.75
2018-07-24T16:42:28.435Z,12.50
2018-07-24T16:44:12.837Z,13.25
2018-07-24T16:45:52.498Z,14.00
2018-07-24T16:47:29.495Z,13.25
2018-07-24T16:49:06.033Z,12.50
2018-07-24T16:50:44.538Z,11.25
2018-07-24T16:52:23.515Z,13.75
2018-07-24T16:54:04.054Z,15.00
2018-07-24T16:55:41.938Z,12.25
2018-07-24T16:57:22.623Z,11.75
2018-07-24T16:58:59.892Z,13.25
2018-07-24T17:00:37.080Z,12.75
2018-07-24T17:02:16.639Z,12.75
2018-07-24T17:10:20.265Z,13.75
2018-07-24T17:11:57.933Z,13.50
2018-07-24T17:13:35.936Z,13.75
2018-07-24T17:15:18.548Z,13.00
2018-07-24T17:16:57.717Z,11.50
2018-07-24T17:18:37.299Z,13.50
2018-07-24T17:20:16.584Z,12.25
2018-07-24T17:21:54.554Z,13.25
2018-07-24T17:23:30.982Z,12.50
2018-07-24T17:25:08.447Z,12.75
2018-07-24T17:26:45.221Z,12.75
2018-07-24T17:28:28.673Z,12.50
2018-07-24T17:30:08.169Z,12.25
2018-07-24T17:31:48.230Z,14.00
2018-07-24T17:33:26.703Z,17.75
2018-07-24T17:35:07.561Z,12.50
2018-07-24T17:36:47.592Z,11.00
2018-07-24T17:38:25.626Z,13.50
2018-07-24T17:40:06.325Z,12.75
2018-07-24T17:41:43.538Z,12.00
2018-07-24T17:43:22.617Z,13.50
2018-07-24T17:45:00.658Z,13.00
2018-07-24T17:46:38.709Z,11.75
2018-07-24T17:48:16.182Z,13.25
2018-07-24T17:49:52.715Z,13.75
2018-07-24T17:51:29.239Z,13.50
2018-07-24T17:53:07.940Z,11.75
2018-07-24T17:54:46.810Z,12.50
2018-07-24T17:56:29.206Z,13.50
2018-07-24T17:58:05.682Z,13.00
2018-07-24T18:00:04.696Z,13.50
2018-07-24T18:01:43.430Z,10.75
2018-07-24T18:03:20.521Z,13.25
2018-07-24T18:04:57.029Z,13.25
2018-07-24T18:06:36.104Z,13.75
2018-07-24T18:08:20.202Z,12.75
2018-07-24T18:10:02.299Z,11.75
2018-07-24T18:11:40.333Z,14.00
2018-07-24T18:13:18.491Z,13.00
2018-07-24T18:14:55.882Z,12.25
2018-07-24T18:16:32.342Z,11.25
2018-07-24T18:18:10.826Z,13.50
2018-07-24T18:19:54.141Z,10.75
2018-07-24T18:21:42.535Z,13.50
2018-07-24T18:23:20.937Z,12.25
2018-07-24T18:24:59.714Z,13.00
2018-07-24T18:26:38.582Z,13.75
2018-07-24T18:28:15.274Z,14.00
2018-07-24T18:29:53.796Z,13.00
2018-07-24T18:31:34.538Z,12.00
2018-07-24T18:33:13.084Z,13.75
2018-07-24T18:34:51.294Z,10.50
2018-07-24T18:36:30.237Z,10.25
2018-07-24T18:38:10.270Z,13.50
2018-07-24T18:39:53.663Z,13.50
2018-07-24T18:41:31.355Z,12.50
2018-07-24T18:43:29.916Z,12.00
2018-07-24T18:45:10.901Z,12.00
2018-07-24T18:46:48.201Z,11.50
2018-07-24T18:48:29.790Z,14.25
2018-07-24T18:50:07.929Z,12.50
2018-07-24T18:51:45.457Z,12.75
2018-07-24T18:53:22.606Z,12.25
2018-07-24T18:55:00.082Z,12.25
2018-07-24T18:56:38.250Z,13.75
2018-07-24T18:58:15.234Z,11.50
2018-07-24T18:59:52.300Z,11.50
2018-07-24T19:01:31.843Z,13.25
2018-07-24T19:03:10.265Z,12.25
2018-07-24T19:04:50.491Z,13.25
2018-07-24T19:06:34.943Z,13.50
2018-07-24T19:08:11.471Z,11.75
2018-07-24T19:09:48.656Z,11.50
2018-07-24T19:11:28.390Z,13.00
2018-07-24T19:13:05.467Z,12.50
2018-07-24T19:14:42.847Z,13.50
2018-07-24T19:16:19.745Z,14.00
2018-07-24T19:18:02.653Z,13.00
2018-07-24T19:19:42.352Z,12.00
2018-07-24T19:21:20.790Z,12.00
2018-07-24T19:23:01.792Z,12.00
2018-07-24T19:25:11.387Z,12.25
2018-07-24T19:26:54.378Z,13.25
2018-07-24T19:28:32.182Z,14.50
2018-07-24T19:30:12.259Z,19.75
2018-07-24T19:31:52.291Z,16.00
2018-07-24T19:33:30.612Z,14.25
2018-07-24T19:35:09.563Z,14.25
2018-07-24T19:36:48.655Z,13.50
2018-07-24T19:38:26.570Z,17.25
2018-07-24T19:40:06.633Z,15.00
2018-07-24T19:41:46.188Z,12.75
2018-07-24T19:43:29.849Z,15.25
2018-07-24T19:45:08.676Z,13.25
2018-07-24T19:46:58.558Z,14.75
2018-07-24T19:48:42.570Z,19.00
2018-07-24T19:50:28.536Z,31.50
2018-07-24T19:52:16.502Z,25.75
2018-07-24T19:53:56.592Z,30.75
2018-07-24T19:55:36.997Z,20.25
2018-07-24T19:57:15.959Z,17.50
2018-07-24T19:58:53.023Z,18.00
2018-07-24T20:00:35.252Z,16.50
2018-07-24T20:02:14.703Z,20.75
2018-07-24T20:03:53.499Z,14.00
2018-07-24T20:05:30.816Z,14.00
2018-07-24T20:07:09.409Z,15.50
2018-07-24T20:08:48.433Z,14.75
2018-07-24T20:10:25.253Z,17.75
2018-07-24T20:12:09.418Z,14.75
2018-07-24T20:13:51.369Z,16.25
2018-07-24T20:15:32.471Z,14.00
2018-07-24T20:17:17.934Z,24.00
2018-07-24T20:19:02.257Z,24.50
2018-07-24T20:20:42.101Z,15.25
2018-07-24T20:22:33.392Z,17.00
2018-07-24T20:24:13.947Z,16.00
2018-07-24T20:25:51.150Z,16.75
2018-07-24T20:27:34.266Z,16.75
2018-07-24T20:29:13.302Z,18.75
2018-07-24T20:30:56.550Z,16.75
2018-07-24T20:32:34.646Z,16.25
2018-07-24T20:34:14.485Z,17.25
2018-07-24T20:35:55.034Z,17.25
2018-07-24T20:37:45.557Z,17.50
2018-07-24T20:39:25.680Z,18.75
2018-07-24T20:41:06.063Z,17.00
2018-07-24T20:42:47.836Z,16.50
2018-07-24T20:44:30.028Z,13.00
2018-07-24T20:46:06.753Z,14.75
2018-07-24T20:47:46.757Z,19.25
2018-07-24T20:49:24.633Z,16.50
2018-07-24T20:51:04.453Z,16.50
2018-07-24T20:52:46.741Z,15.50
2018-07-24T20:54:25.790Z,16.25
2018-07-24T20:56:02.510Z,17.00
2018-07-24T20:57:40.355Z,16.25
2018-07-24T21:00:48.129Z,15.50
2018-07-24T21:02:24.597Z,16.75
2018-07-24T21:04:03.038Z,16.50
2018-07-24T21:05:42.137Z,16.25
2018-07-24T21:07:21.728Z,15.25
2018-07-24T21:08:58.488Z,16.50
2018-07-24T21:10:36.919Z,16.00
2018-07-24T21:12:13.618Z,14.50
2018-07-24T21:13:50.137Z,15.75
2018-07-24T21:15:31.803Z,15.50
2018-07-24T21:17:13.731Z,15.50
2018-07-24T21:18:51.450Z,15.75
2018-07-24T21:20:28.062Z,15.00
2018-07-24T21:22:04.664Z,16.25
2018-07-24T21:23:45.898Z,17.00
2018-07-24T21:25:22.588Z,14.75
2018-07-24T21:26:59.055Z,25.25
2018-07-24T21:28:35.570Z,25.25
2018-07-24T21:30:15.995Z,16.75
2018-07-24T21:31:53.112Z,17.50
2018-07-24T21:33:29.499Z,18.00
2018-07-24T21:35:08.717Z,17.25
2018-07-24T21:36:47.552Z,17.00
2018-07-24T21:38:24.553Z,18.75
2018-07-24T21:40:06.925Z,17.50
2018-07-24T21:41:47.516Z,17.00
2018-07-24T21:43:25.652Z,16.75
2018-07-24T21:45:04.813Z,22.50
2018-07-24T21:46:44.241Z,18.75
2018-07-24T21:48:22.031Z,17.75
2018-07-24T21:49:59.237Z,16.75
2018-07-24T21:51:39.853Z,19.00
2018-07-24T21:53:20.621Z,16.25
2018-07-24T21:54:57.045Z,17.75
2018-07-24T21:56:34.194Z,19.75
2018-07-24T21:58:12.502Z,18.25
2018-07-24T21:59:48.983Z,22.00
2018-07-24T22:01:28.306Z,21.00
2018-07-24T22:03:09.383Z,21.00
2018-07-24T22:04:46.669Z,21.25
2018-07-24T22:06:23.703Z,20.25
2018-07-24T22:08:00.351Z,21.75
2018-07-24T22:09:37.452Z,20.75
2018-07-24T22:11:15.026Z,21.75
2018-07-24T22:12:54.183Z,22.00
2018-07-24T22:14:30.754Z,20.50
2018-07-24T22:16:07.617Z,21.00
2018-07-24T22:17:44.463Z,19.25
2018-07-24T22:19:23.208Z,21.25
2018-07-24T22:22:52.344Z,21.00
2018-07-24T22:24:32.505Z,20.75
2018-07-24T22:26:10.306Z,20.25
2018-07-24T22:27:47.683Z,21.00
2018-07-24T22:29:24.242Z,20.00
2018-07-24T22:31:01.318Z,20.50
2018-07-24T22:32:38.578Z,22.00
2018-07-24T22:34:15.798Z,21.25
2018-07-24T22:35:54.824Z,21.00
2018-07-24T22:37:35.554Z,21.00
2018-07-24T22:39:13.188Z,21.75
2018-07-24T22:40:55.343Z,20.25
2018-07-24T22:42:37.355Z,19.75
2018-07-24T22:44:20.831Z,20.50
2018-07-24T22:46:03.614Z,19.00
2018-07-24T22:47:41.539Z,19.00
2018-07-24T22:49:21.727Z,18.50
2018-07-24T22:51:05.216Z,20.00
2018-07-24T22:52:43.955Z,19.75
2018-07-24T22:54:22.907Z,18.50
2018-07-24T22:56:03.489Z,20.00
2018-07-24T22:57:42.352Z,20.00
2018-07-24T22:59:20.592Z,20.25
2018-07-24T23:00:57.808Z,19.00
2018-07-24T23:02:40.128Z,20.75
2018-07-24T23:04:20.513Z,19.50
2018-07-24T23:05:56.949Z,20.00
2018-07-24T23:07:33.901Z,20.75
2018-07-24T23:09:11.725Z,19.00
2018-07-24T23:10:49.830Z,17.25
2018-07-24T23:14:29.120Z,17.25
2018-07-24T23:16:07.522Z,19.75
2018-07-24T23:17:43.952Z,18.75
2018-07-24T23:19:22.204Z,19.25
2018-07-24T23:21:00.520Z,19.00
2018-07-24T23:22:38.115Z,19.00
2018-07-24T23:24:14.608Z,19.75
2018-07-24T23:25:52.765Z,19.00
2018-07-24T23:27:29.985Z,19.25
2018-07-24T23:29:07.133Z,19.00
2018-07-24T23:30:44.871Z,16.00
2018-07-24T23:32:22.595Z,18.25
2018-07-24T23:33:59.021Z,15.25
2018-07-24T23:35:35.446Z,18.50
2018-07-24T23:37:11.836Z,19.00
2018-07-24T23:38:52.737Z,19.00
2018-07-24T23:40:29.809Z,18.50
2018-07-24T23:42:06.398Z,19.00
2018-07-24T23:43:42.790Z,19.00
2018-07-24T23:45:21.360Z,19.00
2018-07-24T23:46:57.850Z,18.50
2018-07-24T23:48:34.288Z,19.50
2018-07-24T23:50:11.083Z,19.00
2018-07-24T23:51:50.166Z,19.00
2018-07-24T23:53:28.677Z,19.00
2018-07-24T23:55:06.271Z,19.00
2018-07-24T23:56:44.772Z,18.75
2018-07-24T23:58:22.187Z,18.00
